Time;durP1;ratioP1;P1;durP2;ratioP2;P2;SDS_P1;SDS_P2;PMS_P1;PMS_P2;Temp;Humidity;BMP_temperature;BMP_pressure;BME280_temperature;BME280_humidity;BME280_pressure;Samples;Min_cycle;Max_cycle;Signal;HPM_P1;HPM_P2
2022/09/16 00:03:03;;;;;;;0.40;0.40;;;14.50;99.90;15.00;101092.00;;;;6167940;23;20172;-70
2022/09/16 00:05:51;;;;;;;0.30;0.30;;;14.30;99.90;15.70;101109.00;;;;6190153;23;20142;-70
2022/09/16 00:08:34;;;;;;;0.30;0.30;;;14.50;99.90;15.50;101113.00;;;;6190448;23;20169;-71
2022/09/16 00:11:22;;;;;;;0.20;0.20;;;14.60;99.90;15.10;101085.00;;;;6215702;23;20161;-71
2022/09/16 00:14:09;;;;;;;0.30;0.30;;;14.40;99.90;14.80;101089.00;;;;6186919;23;20251;-71
2022/09/16 00:16:58;;;;;;;0.30;0.30;;;14.10;99.90;14.20;101087.00;;;;6168111;23;20222;-71
2022/09/16 00:19:24;;;;;;;0.20;0.20;;;13.90;99.90;14.10;101078.00;;;;6190262;23;20218;-70
2022/09/16 00:21:50;;;;;;;0.20;0.20;;;13.80;99.90;14.40;101074.00;;;;6190542;23;20601;-70
2022/09/16 00:24:16;;;;;;;0.20;0.20;;;13.80;99.90;14.40;101076.00;;;;6190342;23;20230;-70
2022/09/16 00:27:00;;;;;;;0.20;0.20;;;13.90;99.90;14.10;101063.00;;;;6189493;23;20157;-70
2022/09/16 00:29:26;;;;;;;0.40;0.40;;;13.80;99.90;14.90;101062.00;;;;6189753;23;20597;-70
2022/09/16 00:31:55;;;;;;;0.20;0.20;;;14.00;99.90;14.50;101077.00;;;;6190310;23;20182;-70
2022/09/16 00:34:21;;;;;;;0.27;0.27;;;14.10;99.90;14.00;101065.00;;;;6190204;23;20158;-71
2022/09/16 00:36:50;;;;;;;2.00;1.90;;;13.80;99.90;14.50;101072.00;;;;6215697;23;20244;-70
2022/09/16 00:39:16;;;;;;;0.20;0.20;;;13.80;99.90;14.90;101072.00;;;;6165590;23;20165;-71
2022/09/16 00:41:43;;;;;;;1.53;1.03;;;14.00;99.90;14.50;101077.00;;;;6165527;23;20156;-71
2022/09/16 00:45:03;;;;;;;0.60;0.60;;;14.00;99.90;14.90;101075.00;;;;6197867;23;20236;-71
2022/09/16 00:47:39;;;;;;;0.20;0.20;;;14.00;99.90;15.20;101053.00;;;;6195122;23;20160;-72
2022/09/16 00:50:14;;;;;;;0.73;0.70;;;14.30;99.90;15.50;101089.00;;;;6219918;23;20209;-71
2022/09/16 00:52:51;;;;;;;0.30;0.30;;;14.40;99.90;14.90;101084.00;;;;6195131;23;20168;-71
2022/09/16 00:55:30;;;;;;;0.20;0.20;;;14.30;99.90;14.70;101083.00;;;;6194518;23;20552;-71
2022/09/16 00:58:21;;;;;;;0.60;0.40;;;14.20;99.90;14.60;101094.00;;;;6195112;23;20164;-71
2022/09/16 01:00:48;;;;;;;0.30;0.30;;;14.20;99.90;15.00;101061.00;;;;6195154;23;20161;-71
2022/09/16 01:03:14;;;;;;;0.30;0.30;;;14.20;99.90;15.00;101091.00;;;;6246766;23;20156;-71
2022/09/16 01:05:41;;;;;;;0.43;0.43;;;14.20;99.90;14.50;101079.00;;;;6194663;23;20156;-71
2022/09/16 01:08:07;;;;;;;0.20;0.20;;;14.10;99.90;14.50;101071.00;;;;6220030;23;20517;-70
2022/09/16 01:10:33;;;;;;;0.30;0.30;;;14.00;99.90;14.70;101082.00;;;;6194970;23;20594;-70
2022/09/16 01:13:11;;;;;;;0.20;0.20;;;14.00;99.90;15.20;101094.00;;;;6219945;23;20172;-70
2022/09/16 01:16:29;;;;;;;0.20;0.20;;;14.30;99.90;15.60;101107.00;;;;6194809;23;20196;-70
2022/09/16 01:19:51;;;;;;;0.30;0.30;;;14.50;99.90;14.80;101085.00;;;;6194930;23;20160;-70
2022/09/16 01:22:53;;;;;;;0.40;0.40;;;14.30;99.90;14.60;101066.00;;;;6219947;23;20495;-70
2022/09/16 01:26:26;;;;;;;0.57;0.57;;;14.20;99.90;14.70;101067.00;;;;6246242;23;20218;-70
2022/09/16 01:29:09;;;;;;;0.30;0.30;;;14.10;99.90;15.00;101041.00;;;;6094783;23;20162;-71
2022/09/16 01:32:18;;;;;;;0.20;0.20;;;14.30;99.90;14.50;101064.00;;;;6245024;23;20672;-71
2022/09/16 01:35:03;;;;;;;0.20;0.20;;;14.20;99.90;14.80;101061.00;;;;6218316;23;20168;-71
2022/09/16 01:38:29;;;;;;;0.20;0.20;;;14.20;99.90;14.50;101050.00;;;;6195235;23;20245;-71
2022/09/16 01:41:18;;;;;;;0.90;0.80;;;14.10;99.90;14.30;101045.00;;;;6194673;23;20159;-70
2022/09/16 01:44:04;;;;;;;0.20;0.20;;;13.90;99.90;14.40;101040.00;;;;6219078;23;20205;-70
2022/09/16 01:46:48;;;;;;;0.67;0.57;;;13.90;99.90;14.00;101037.00;;;;6220171;23;20167;-70
2022/09/16 01:49:47;;;;;;;0.37;0.37;;;13.80;99.90;14.70;101039.00;;;;6194630;23;20596;-70
2022/09/16 01:52:45;;;;;;;0.30;0.30;;;14.00;99.90;14.80;101026.00;;;;6219777;23;20201;-70
2022/09/16 01:55:35;;;;;;;0.70;0.50;;;14.10;99.90;14.40;101034.00;;;;6219630;23;20533;-70
2022/09/16 01:58:32;;;;;;;0.47;0.47;;;14.10;99.90;14.30;101029.00;;;;6195274;23;20241;-70
2022/09/16 02:01:24;;;;;;;0.67;0.50;;;13.90;99.90;14.40;101025.00;;;;6204225;23;20160;-70
2022/09/16 02:04:21;;;;;;;0.40;0.40;;;13.80;99.90;14.50;101020.00;;;;6194766;23;20206;-70
2022/09/16 02:06:49;;;;;;;0.20;0.20;;;13.80;99.90;14.00;100985.00;;;;6219227;23;20577;-71
2022/09/16 02:09:34;;;;;;;0.67;0.67;;;13.70;99.90;14.30;101023.00;;;;6194540;23;20159;-72
2022/09/16 02:12:05;;;;;;;0.93;0.60;;;13.90;99.90;13.90;101023.00;;;;6219179;23;20168;-71
2022/09/16 02:14:53;;;;;;;0.40;0.40;;;13.70;99.90;13.60;101030.00;;;;6194276;23;20176;-71
2022/09/16 02:17:23;;;;;;;0.20;0.20;;;13.50;99.90;13.80;101024.00;;;;6194042;23;20155;-70
2022/09/16 02:19:58;;;;;;;0.20;0.20;;;13.60;99.90;13.60;101025.00;;;;6194693;23;20155;-70
2022/09/16 02:22:44;;;;;;;0.60;0.60;;;13.50;99.90;14.10;101017.00;;;;6219631;23;20166;-70
2022/09/16 02:25:17;;;;;;;0.63;0.63;;;13.60;99.90;14.20;101025.00;;;;6194265;23;20246;-70
2022/09/16 02:27:49;;;;;;;0.33;0.33;;;13.70;99.90;14.20;101027.00;;;;6194479;23;20167;-71
2022/09/16 02:30:20;;;;;;;0.63;0.63;;;13.70;99.90;14.50;101026.00;;;;6194762;23;20155;-71
2022/09/16 02:32:59;;;;;;;0.20;0.20;;;13.90;99.90;14.30;101028.00;;;;6219488;23;20262;-70
2022/09/16 02:35:27;;;;;;;0.27;0.27;;;13.80;99.90;13.80;101027.00;;;;6194238;23;20165;-70
2022/09/16 03:00:45;;;;;;;0.30;0.30;;;14.20;99.90;15.00;101011.00;;;;6124855;23;20183;-70
2022/09/16 03:03:11;;;;;;;0.30;0.30;;;14.10;99.90;15.10;101031.00;;;;6116031;23;20202;-71
2022/09/16 03:06:27;;;;;;;0.30;0.30;;;14.20;99.90;14.70;101027.00;;;;6189343;23;20233;-71
2022/09/16 03:09:00;;;;;;;0.30;0.30;;;14.10;99.90;14.50;101021.00;;;;6189685;23;20137;-71
2022/09/16 03:12:02;;;;;;;0.30;0.30;;;14.00;99.90;15.00;101025.00;;;;6214064;23;20171;-71
2022/09/16 03:15:04;;;;;;;0.40;0.40;;;14.00;99.90;14.40;101022.00;;;;6213618;23;20159;-71
2022/09/16 03:57:27;;;;;;;0.30;0.30;;;14.20;99.90;15.00;101040.00;;;;6265121;22;20658;-71
2022/09/16 03:59:56;;;;;;;0.40;0.40;;;14.20;99.90;15.00;101041.00;;;;6226059;22;20157;-70
2022/09/16 04:02:22;;;;;;;0.30;0.30;;;14.10;99.90;15.10;101042.00;;;;6226257;22;20537;-71
2022/09/16 04:04:47;;;;;;;0.30;0.30;;;14.20;99.90;15.20;101045.00;;;;6251357;22;20178;-71
2022/09/16 04:07:14;;;;;;;0.30;0.30;;;14.30;99.90;15.10;101038.00;;;;6250732;22;20803;-71
2022/09/16 04:09:41;;;;;;;0.40;0.40;;;14.30;99.90;14.80;101029.00;;;;6225615;22;20166;-71
2022/09/16 04:12:07;;;;;;;0.40;0.40;;;14.10;99.90;14.80;101024.00;;;;6251174;22;20189;-71
2022/09/16 04:14:34;;;;;;;0.40;0.40;;;14.00;99.90;14.90;101027.00;;;;6251091;22;20147;-71
2022/09/16 04:17:01;;;;;;;0.40;0.40;;;13.90;99.90;14.70;101024.00;;;;6225365;22;20162;-71
2022/09/16 04:19:27;;;;;;;0.40;0.40;;;14.00;99.90;15.00;101025.00;;;;6225320;22;20158;-71
2022/09/16 04:21:54;;;;;;;0.40;0.40;;;14.00;99.90;15.30;101027.00;;;;6225306;22;20170;-71
2022/09/16 04:24:20;;;;;;;0.40;0.40;;;14.20;99.90;14.90;101025.00;;;;6225300;22;20167;-71
2022/09/16 04:26:46;;;;;;;0.30;0.30;;;14.10;99.90;14.90;101003.00;;;;6250588;22;20163;-71
2022/09/16 04:29:12;;;;;;;0.40;0.40;;;14.10;99.90;14.20;101035.00;;;;6225394;22;20224;-71
2022/09/16 04:31:38;;;;;;;0.40;0.40;;;14.00;99.90;14.20;101027.00;;;;6225062;22;20229;-68
2022/09/16 04:34:04;;;;;;;0.40;0.40;;;13.80;99.90;14.20;101032.00;;;;6250698;22;20217;-68
2022/09/16 04:36:33;;;;;;;0.40;0.40;;;13.70;99.90;14.20;101033.00;;;;6223907;22;20166;-70
2022/09/16 04:38:59;;;;;;;0.30;0.30;;;13.70;99.90;14.50;101038.00;;;;6250605;22;20165;-69
2022/09/16 04:41:31;;;;;;;0.30;0.30;;;13.90;99.90;14.70;101042.00;;;;6225435;22;20164;-68
2022/09/16 04:44:00;;;;;;;0.40;0.40;;;13.90;99.90;14.80;101047.00;;;;6226066;22;20166;-68
2022/09/16 04:46:28;;;;;;;0.40;0.40;;;14.00;99.90;14.80;101043.00;;;;6224836;22;20169;-68
2022/09/16 04:49:00;;;;;;;0.40;0.40;;;14.00;99.90;14.70;101042.00;;;;6250667;22;20473;-68
2022/09/16 04:51:31;;;;;;;0.70;0.70;;;14.00;99.90;14.90;101025.00;;;;6249939;22;20134;-69
2022/09/16 04:53:58;;;;;;;0.70;0.70;;;14.00;99.90;14.80;101034.00;;;;6226278;22;20622;-67
2022/09/16 04:56:34;;;;;;;0.60;0.60;;;14.00;99.90;14.70;101026.00;;;;6250243;22;20675;-67
2022/09/16 04:59:03;;;;;;;0.80;0.80;;;14.00;99.90;14.70;101020.00;;;;6225001;22;20602;-67
2022/09/16 05:01:38;;;;;;;0.93;0.93;;;13.90;99.90;14.70;101019.00;;;;6250469;22;20272;-67
2022/09/16 05:04:09;;;;;;;0.80;0.80;;;14.00;99.90;14.80;101022.00;;;;6251175;22;20138;-68
2022/09/16 05:06:39;;;;;;;4.90;4.50;;;14.00;99.90;13.80;101019.00;;;;6250528;22;20165;-68
2022/09/16 05:09:06;;;;;;;0.90;0.90;;;13.70;99.90;14.10;101029.00;;;;6225046;22;20602;-68
2022/09/16 05:11:41;;;;;;;1.00;1.00;;;13.60;99.90;14.40;101039.00;;;;6250402;22;20158;-69
2022/09/16 05:14:13;;;;;;;0.90;0.90;;;13.70;99.90;14.40;101048.00;;;;6225073;22;20154;-69
2022/09/16 05:16:38;;;;;;;2.13;2.13;;;13.60;99.90;14.40;101040.00;;;;6224544;22;20164;-69
2022/09/16 05:19:05;;;;;;;1.00;1.00;;;13.70;99.90;14.50;101049.00;;;;6224869;22;20166;-69
2022/09/16 05:21:34;;;;;;;1.10;1.10;;;13.60;99.90;14.80;101056.00;;;;6224679;22;20156;-69
2022/09/16 05:24:02;;;;;;;1.10;1.10;;;13.80;99.90;14.80;101046.00;;;;6250172;22;20234;-69
2022/09/16 05:26:31;;;;;;;0.80;0.80;;;13.90;99.90;14.20;101045.00;;;;6250197;22;20543;-69
2022/09/16 05:29:03;;;;;;;0.83;0.83;;;13.70;99.90;14.60;101050.00;;;;6224911;22;20162;-68
2022/09/16 05:31:31;;;;;;;1.00;1.00;;;13.80;99.90;14.40;101051.00;;;;6249822;22;20134;-68
2022/09/16 05:34:10;;;;;;;0.90;0.90;;;13.80;99.90;14.30;101047.00;;;;6224566;22;20213;-68
2022/09/16 05:36:42;;;;;;;1.47;1.47;;;13.70;99.90;14.60;101039.00;;;;6250099;22;20245;-68
2022/09/16 05:39:11;;;;;;;0.90;0.90;;;13.80;99.90;14.30;101046.00;;;;6251193;22;20219;-68
2022/09/16 05:41:38;;;;;;;1.10;1.10;;;13.80;99.90;14.70;101040.00;;;;6224415;22;20150;-69
2022/09/16 05:44:05;;;;;;;1.00;1.00;;;13.90;99.90;14.70;101047.00;;;;6250272;22;20169;-70
2022/09/16 05:46:32;;;;;;;1.20;1.20;;;14.00;99.90;14.60;101056.00;;;;6250279;22;20148;-70
2022/09/16 05:48:58;;;;;;;1.23;1.23;;;13.90;99.90;14.80;101051.00;;;;6224660;22;20190;-70
2022/09/16 05:51:25;;;;;;;1.10;1.10;;;13.90;99.90;15.00;101050.00;;;;6249690;22;20175;-71
2022/09/16 05:53:55;;;;;;;1.23;1.23;;;14.10;99.90;15.10;101050.00;;;;6249694;22;20154;-69
2022/09/16 05:56:25;;;;;;;1.20;1.20;;;14.20;99.90;15.10;101048.00;;;;6223523;22;20575;-68
2022/09/16 05:58:57;;;;;;;1.37;1.37;;;14.30;99.90;14.90;101053.00;;;;6224624;22;20173;-68
2022/09/16 06:01:27;;;;;;;1.30;1.30;;;14.20;99.90;14.90;101041.00;;;;6224587;22;20150;-68
2022/09/16 06:03:55;;;;;;;1.30;1.30;;;14.20;99.90;14.90;101051.00;;;;6224233;22;20161;-68
2022/09/16 06:06:47;;;;;;;1.50;1.50;;;14.10;99.90;14.80;101040.00;;;;6247808;22;20287;-68
2022/09/16 06:09:23;;;;;;;1.50;1.50;;;14.10;99.90;15.10;101060.00;;;;6223949;22;20166;-68
2022/09/16 06:11:53;;;;;;;1.30;1.30;;;14.10;99.90;15.20;101058.00;;;;6224456;22;20186;-68
2022/09/16 06:14:27;;;;;;;1.40;1.40;;;14.30;99.90;13.80;101029.00;;;;6224463;22;20638;-68
2022/09/16 06:16:55;;;;;;;1.50;1.50;;;13.80;99.90;13.80;101040.00;;;;6224096;22;20158;-68
2022/09/16 06:19:24;;;;;;;1.00;1.00;;;13.50;99.90;13.70;101046.00;;;;6249806;22;20166;-69
2022/09/16 06:21:53;;;;;;;1.00;1.00;;;13.40;99.90;13.90;101038.00;;;;6249481;22;20302;-69
2022/09/16 06:24:21;;;;;;;1.33;1.30;;;13.50;99.90;13.50;101030.00;;;;6224736;22;20453;-68
2022/09/16 06:26:48;;;;;;;0.80;0.80;;;13.20;99.90;13.20;101035.00;;;;6249060;22;20139;-69
2022/09/16 06:29:19;;;;;;;1.93;1.83;;;13.10;99.90;13.30;101038.00;;;;6224479;22;20161;-69
2022/09/16 06:31:45;;;;;;;1.00;1.00;;;13.00;99.90;13.40;101050.00;;;;6249317;22;20193;-68
2022/09/16 06:34:17;;;;;;;0.90;0.90;;;13.10;99.90;13.40;101055.00;;;;6249199;22;20161;-68
2022/09/16 06:36:43;;;;;;;3.60;3.03;;;13.20;99.90;13.30;101052.00;;;;6224184;22;20172;-68
2022/09/16 06:39:12;;;;;;;0.97;0.97;;;13.10;99.90;13.70;101066.00;;;;6224208;22;20198;-68
2022/09/16 06:41:38;;;;;;;0.80;0.80;;;13.20;99.90;13.70;101064.00;;;;6249501;22;20162;-68
2022/09/16 06:44:04;;;;;;;1.53;1.43;;;13.30;99.90;13.80;101063.00;;;;6224409;22;20162;-68
2022/09/16 06:46:30;;;;;;;0.70;0.70;;;13.40;99.90;13.20;101062.00;;;;6223686;22;20617;-68
2022/09/16 06:48:57;;;;;;;3.70;1.10;;;13.20;99.90;13.10;101062.00;;;;6249454;22;20245;-68
2022/09/16 06:51:29;;;;;;;0.70;0.70;;;13.10;99.90;13.10;101065.00;;;;6248336;22;20223;-68
2022/09/16 06:54:05;;;;;;;0.80;0.80;;;13.00;99.90;13.10;101064.00;;;;6250302;22;20180;-68
2022/09/16 06:56:34;;;;;;;0.80;0.80;;;12.80;99.90;13.20;101066.00;;;;6220722;23;20499;-68
2022/09/16 06:59:00;;;;;;;2.03;1.80;;;12.90;99.90;13.30;101053.00;;;;6248220;22;20215;-68
2022/09/16 07:01:32;;;;;;;0.83;0.83;;;13.00;99.90;13.10;101064.00;;;;6226176;22;20248;-68
2022/09/16 07:04:04;;;;;;;0.90;0.90;;;12.90;99.90;13.50;101069.00;;;;6251914;22;20563;-68
2022/09/16 07:06:32;;;;;;;0.90;0.90;;;13.10;99.90;13.90;101048.00;;;;6277357;22;20202;-70
2022/09/16 07:09:11;;;;;;;1.10;1.10;;;13.30;99.90;14.10;101069.00;;;;6251892;22;20244;-69
2022/09/16 07:11:44;;;;;;;1.20;1.20;;;13.40;99.90;13.70;101039.00;;;;6274842;22;20164;-67
2022/09/16 07:14:11;;;;;;;1.00;1.00;;;13.40;99.90;13.20;101056.00;;;;6225708;22;20170;-68
2022/09/16 07:16:40;;;;;;;3.23;1.30;;;13.10;99.90;12.80;101046.00;;;;6226253;22;20265;-68
2022/09/16 07:19:09;;;;;;;1.23;1.20;;;12.90;99.90;13.00;101044.00;;;;6251238;22;20214;-68
2022/09/16 07:21:35;;;;;;;0.90;0.90;;;12.80;99.90;13.20;101053.00;;;;6251460;22;20148;-68
2022/09/16 07:24:22;;;;;;;1.00;1.00;;;12.80;99.90;13.80;101052.00;;;;6226007;22;20281;-68
2022/09/16 07:27:09;;;;;;;1.50;1.50;;;13.10;99.90;14.10;101051.00;;;;6252378;22;20613;-68
2022/09/16 07:30:03;;;;;;;2.50;2.40;;;13.40;99.90;13.30;101046.00;;;;6251677;22;20173;-68
2022/09/16 07:33:20;;;;;;;0.83;0.83;;;13.20;99.90;13.00;101059.00;;;;6251582;22;20187;-68
2022/09/16 07:39:36;;;;;;;0.83;0.83;;;13.10;99.90;13.70;101053.00;;;;6278526;22;20200;-69
2022/09/16 07:42:03;;;;;;;1.53;1.43;;;13.30;99.90;13.80;101058.00;;;;6251254;22;20154;-68
2022/09/16 07:44:29;;;;;;;1.60;0.97;;;13.40;99.90;13.60;101022.00;;;;6255357;22;20165;-69
2022/09/16 07:46:58;;;;;;;2.13;2.03;;;13.50;99.90;13.40;101043.00;;;;6228177;22;20158;-69
2022/09/16 07:49:24;;;;;;;4.40;2.13;;;13.40;99.90;13.10;101057.00;;;;6249759;22;20172;-69
2022/09/16 07:52:16;;;;;;;0.80;0.80;;;13.30;99.90;13.70;101037.00;;;;6250803;22;20195;-69
2022/09/16 07:55:03;;;;;;;10.60;1.57;;;13.30;99.90;14.80;101086.00;;;;6277867;22;20532;-69
2022/09/16 07:57:49;;;;;;;1.20;1.20;;;13.90;99.90;15.40;101093.00;;;;6231840;23;20286;-69
2022/09/16 08:00:19;;;;;;;1.60;1.50;;;14.40;99.90;15.20;101083.00;;;;6220484;23;20154;-70
2022/09/16 08:02:57;;;;;;;1.60;1.60;;;14.60;99.90;15.20;101093.00;;;;6220528;23;20156;-71
2022/09/16 08:05:30;;;;;;;2.70;2.60;;;14.60;99.90;15.00;101088.00;;;;6221319;23;20532;-71
2022/09/16 08:08:07;;;;;;;3.40;3.30;;;14.40;99.90;15.00;101076.00;;;;6195205;23;20507;-72
2022/09/16 08:11:29;;;;;;;3.80;3.70;;;14.50;99.90;15.10;101090.00;;;;6220844;23;20172;-70
2022/09/16 08:14:10;;;;;;;3.70;3.60;;;14.40;99.90;15.00;101086.00;;;;6219843;23;20194;-70
2022/09/16 08:17:18;;;;;;;3.70;3.60;;;14.40;99.90;15.30;101103.00;;;;6222550;23;20160;-69
2022/09/16 08:20:11;;;;;;;3.57;3.47;;;14.50;99.90;15.60;101111.00;;;;6195416;23;20150;-71
2022/09/16 08:22:51;;;;;;;3.00;2.90;;;14.80;99.90;15.60;101110.00;;;;6194502;23;20620;-71
2022/09/16 08:25:41;;;;;;;3.40;3.30;;;14.90;99.90;16.00;101117.00;;;;6220534;23;20164;-71
2022/09/16 08:28:38;;;;;;;2.10;2.10;;;15.20;99.90;14.70;101124.00;;;;6212605;23;20172;-72
2022/09/16 08:31:04;;;;;;;3.20;2.37;;;14.70;99.90;15.00;101125.00;;;;6203999;23;20168;-71
2022/09/16 08:33:47;;;;;;;2.20;2.20;;;14.70;99.90;14.80;101107.00;;;;6220124;23;20175;-71
2022/09/16 08:36:45;;;;;;;2.10;2.10;;;14.60;99.90;14.50;101130.00;;;;6195740;23;20171;-71
2022/09/16 08:39:35;;;;;;;2.10;2.10;;;14.30;99.90;14.40;101137.00;;;;6210463;23;20250;-71
2022/09/16 08:42:19;;;;;;;3.93;2.10;;;14.10;99.90;13.80;101123.00;;;;6151695;23;20163;-71
2022/09/16 08:48:27;;;;;;;2.30;2.30;;;14.00;99.90;15.30;101137.00;;;;6246992;23;20211;-71
2022/09/16 08:51:17;;;;;;;3.10;3.00;;;14.40;99.90;15.50;101121.00;;;;6247309;23;20150;-73
2022/09/16 08:53:58;;;;;;;3.30;3.20;;;14.70;99.90;15.80;101128.00;;;;6220203;23;20606;-73
2022/09/16 08:56:30;;;;;;;3.33;3.23;;;15.00;99.90;15.70;101120.00;;;;6225189;22;20187;-72
2022/09/16 08:59:00;;;;;;;4.27;4.17;;;15.10;99.90;15.90;101134.00;;;;6225192;22;20172;-70
2022/09/16 09:01:47;;;;;;;4.67;4.57;;;15.40;99.90;16.50;101134.00;;;;6250158;22;20152;-67
2022/09/16 09:04:15;;;;;;;4.80;4.70;;;15.50;99.90;16.50;101139.00;;;;6277141;22;20144;-72
2022/09/16 09:07:08;;;;;;;4.87;4.77;;;15.70;99.90;16.70;101129.00;;;;6277144;22;20191;-72
2022/09/16 09:10:08;;;;;;;3.80;3.70;;;15.80;99.90;16.70;101118.00;;;;6250401;22;20173;-73
2022/09/16 09:13:16;;;;;;;3.70;3.60;;;15.90;99.90;17.60;101138.00;;;;6251017;22;20204;-72
2022/09/16 09:16:19;;;;;;;5.30;5.20;;;16.70;99.90;18.60;101138.00;;;;6124023;23;20232;-71
2022/09/16 09:19:18;;;;;;;5.23;5.13;;;17.40;99.90;19.30;101128.00;;;;6225267;22;20182;-72
2022/09/16 09:23:08;;;;;;;4.60;4.50;;;18.00;99.90;19.00;101172.00;;;;6183999;22;20266;-67
2022/09/16 09:26:12;;;;;;;2.90;2.80;;;18.40;99.90;18.90;101188.00;;;;6124385;23;20161;-72
2022/09/16 09:29:13;;;;;;;1.80;1.80;;;18.10;99.90;18.30;101195.00;;;;6124266;23;20168;-72
2022/09/16 09:32:17;;;;;;;1.10;1.10;;;17.70;99.90;17.40;101188.00;;;;6215445;22;20607;-72
2022/09/16 09:35:06;;;;;;;0.70;0.70;;;17.20;99.90;16.10;101172.00;;;;6250131;22;20157;-70
2022/09/16 09:38:06;;;;;;;0.60;0.60;;;16.40;99.90;15.60;101174.00;;;;6277239;22;20160;-70
2022/09/16 09:45:05;;;;;;;1.00;1.00;;;15.10;99.90;15.10;101171.00;;;;6260140;22;20165;-71
2022/09/16 09:48:22;;;;;;;1.10;1.10;;;14.90;99.90;15.40;101180.00;;;;6219125;22;20167;-72
2022/09/16 09:50:50;;;;;;;1.30;1.30;;;14.80;99.90;15.30;101163.00;;;;6277098;22;20177;-72
2022/09/16 09:53:33;;;;;;;1.40;1.40;;;14.70;99.90;15.70;101161.00;;;;6249915;22;20175;-72
2022/09/16 09:56:25;;;;;;;1.60;1.60;;;14.80;99.90;15.70;101130.00;;;;6249281;22;20186;-72
2022/09/16 09:59:00;;;;;;;2.10;2.10;;;14.90;99.90;15.90;101150.00;;;;6249719;22;20194;-71
2022/09/16 10:01:35;;;;;;;1.53;1.53;;;15.10;99.90;15.60;101145.00;;;;6276994;22;20189;-72
2022/09/16 10:04:21;;;;;;;0.97;0.97;;;15.00;99.90;15.70;101143.00;;;;6277005;22;20159;-72
2022/09/16 10:06:50;;;;;;;0.97;0.97;;;14.90;99.90;15.30;101140.00;;;;6223235;22;20180;-71
2022/09/16 10:09:21;;;;;;;0.90;0.90;;;15.10;99.90;16.20;101141.00;;;;6224538;22;20526;-72
2022/09/16 10:12:11;;;;;;;0.50;0.50;;;15.50;99.90;15.80;101160.00;;;;6250060;22;20173;-72
2022/09/16 10:14:37;;;;;;;0.60;0.60;;;15.60;99.90;16.40;101161.00;;;;6224789;22;20498;-72
2022/09/16 10:17:16;;;;;;;0.60;0.60;;;15.80;99.90;16.10;101159.00;;;;6249583;22;20184;-72
2022/09/16 10:20:38;;;;;;;0.93;0.93;;;15.60;99.90;16.60;101179.00;;;;6250282;22;20174;-71
2022/09/16 10:33:44;;;;;;;0.50;0.50;;;14.30;99.90;14.70;101163.00;;;;5164863;27;20546;-71
2022/09/16 10:36:21;;;;;;;0.60;0.60;;;14.40;99.90;15.80;101160.00;;;;5092584;28;20195;-72
2022/09/16 10:39:08;;;;;;;0.80;0.80;;;14.80;99.90;16.40;101157.00;;;;5092799;28;20179;-71
2022/09/16 10:41:49;;;;;;;0.80;0.80;;;15.30;99.90;16.80;101162.00;;;;5108279;28;20200;-71
2022/09/16 10:44:31;;;;;;;1.17;1.17;;;15.70;99.90;17.20;101167.00;;;;5109781;28;20197;-71
2022/09/16 10:47:22;;;;;;;0.80;0.80;;;16.10;99.90;16.90;101143.00;;;;5092559;28;20180;-71
2022/09/16 10:50:17;;;;;;;0.90;0.90;;;16.30;99.90;17.50;101163.00;;;;5126720;28;20173;-71
2022/09/16 10:53:20;;;;;;;0.90;0.90;;;16.60;99.90;17.60;101168.00;;;;5108826;28;20309;-71
2022/09/16 10:56:19;;;;;;;0.80;0.80;;;17.10;99.90;17.70;101176.00;;;;5109510;28;20722;-70
2022/09/16 10:59:32;;;;;;;0.70;0.70;;;17.10;99.90;18.00;101181.00;;;;5092258;28;20653;-73
2022/09/16 11:02:26;;;;;;;0.70;0.70;;;17.30;99.90;18.30;101136.00;;;;5091822;28;20638;-72
2022/09/16 11:05:25;;;;;;;0.50;0.50;;;17.50;99.90;19.20;101172.00;;;;5092551;28;20183;-72
2022/09/16 11:08:26;;;;;;;0.40;0.40;;;18.10;99.90;19.10;101176.00;;;;5109771;28;20196;-73
2022/09/16 11:14:50;;;;;;;0.30;0.30;;;18.80;99.90;19.60;101193.00;;;;5111437;28;20574;-73
2022/09/16 11:18:13;;;;;;;0.20;0.20;;;19.00;99.90;18.90;101201.00;;;;5110270;28;20284;-73
2022/09/16 11:21:19;;;;;;;0.20;0.20;;;18.50;99.90;17.60;101209.00;;;;5090005;28;20286;-72
2022/09/16 11:24:32;;;;;;;0.20;0.20;;;17.90;99.90;17.40;101197.00;;;;5109017;28;20609;-72
2022/09/16 11:27:05;;;;;;;0.30;0.30;;;17.10;99.90;17.50;101192.00;;;;5091858;28;20194;-72
2022/09/16 11:29:55;;;;;;;0.50;0.50;;;17.30;99.90;18.30;101208.00;;;;5109436;28;20518;-72
2022/09/16 11:32:50;;;;;;;0.20;0.20;;;17.60;99.90;18.40;101202.00;;;;5108452;28;20250;-73
2022/09/16 11:35:42;;;;;;;0.20;0.20;;;17.80;99.90;19.60;101212.00;;;;5109118;28;20192;-72
2022/09/16 11:38:37;;;;;;;0.40;0.40;;;18.40;99.90;19.20;101188.00;;;;5108329;28;20234;-72
2022/09/16 11:41:27;;;;;;;0.20;0.20;;;18.60;99.90;19.70;101225.00;;;;5092496;28;20628;-72
2022/09/16 11:44:23;;;;;;;0.20;0.20;;;18.70;99.90;19.40;101228.00;;;;5099926;28;20672;-72
2022/09/16 11:47:00;;;;;;;0.37;0.37;;;18.60;99.90;18.50;101219.00;;;;5094894;28;20186;-72
2022/09/16 11:49:59;;;;;;;0.20;0.20;;;18.00;99.90;16.80;101223.00;;;;5095171;28;20191;-72
2022/09/16 11:52:44;;;;;;;0.30;0.30;;;17.10;99.90;15.70;101189.00;;;;5080666;28;20217;-73
2022/09/16 11:55:28;;;;;;;0.30;0.30;;;15.90;99.90;15.00;101183.00;;;;5095664;28;20217;-71
2022/09/16 11:58:50;;;;;;;0.97;0.97;;;15.20;99.90;14.80;101198.00;;;;5096351;28;20162;-72
2022/09/16 12:01:44;;;;;;;0.40;0.40;;;14.70;99.90;15.10;101199.00;;;;5075289;28;20189;-72
2022/09/16 12:04:35;;;;;;;0.50;0.50;;;14.50;99.90;15.60;101194.00;;;;5095597;28;20650;-73
2022/09/16 12:07:50;;;;;;;1.30;0.93;;;14.80;99.90;16.30;101194.00;;;;5094277;28;20173;-74
2022/09/16 12:10:29;;;;;;;0.60;0.60;;;15.40;99.90;16.80;101189.00;;;;5077670;28;20271;-72
2022/09/16 12:13:36;;;;;;;0.60;0.60;;;15.80;99.90;17.10;101190.00;;;;5078547;28;21013;-73
2022/09/16 12:16:07;;;;;;;0.50;0.50;;;16.20;99.90;17.50;101182.00;;;;5073722;28;20197;-72
2022/09/16 12:19:01;;;;;;;0.50;0.50;;;16.50;99.90;17.60;101196.00;;;;5088533;28;20653;-76
2022/09/16 12:22:00;;;;;;;0.40;0.40;;;16.70;99.90;17.90;101198.00;;;;5072981;28;20626;-69
2022/09/16 12:24:56;;;;;;;0.30;0.30;;;17.20;99.90;17.40;101189.00;;;;5074952;28;20638;-72
2022/09/16 12:28:12;;;;;;;0.50;0.50;;;17.10;99.90;17.60;101186.00;;;;5073578;28;20177;-71
2022/09/16 12:30:46;;;;;;;0.30;0.30;;;17.10;99.90;18.00;101195.00;;;;5051107;28;20314;-71
2022/09/16 12:33:42;;;;;;;0.30;0.30;;;17.30;99.90;18.00;101184.00;;;;5073390;28;20683;-71
2022/09/16 12:36:15;;;;;;;0.30;0.30;;;17.40;99.90;17.60;101203.00;;;;5081080;28;20199;-71
2022/09/16 12:39:04;;;;;;;0.20;0.20;;;17.30;99.90;17.30;101210.00;;;;5082167;28;20189;-71
2022/09/16 12:41:49;;;;;;;0.30;0.30;;;17.00;99.90;17.60;101215.00;;;;5073909;28;20193;-71
2022/09/16 12:44:42;;;;;;;1.40;1.17;;;17.00;99.90;17.50;101223.00;;;;5073200;28;20604;-71
2022/09/16 12:47:54;;;;;;;1.40;0.73;;;17.00;99.90;16.50;101204.00;;;;5073878;28;20685;-71
2022/09/16 12:51:09;;;;;;;0.27;0.27;;;16.70;99.90;15.20;101226.00;;;;5073650;28;20232;-71
2022/09/16 12:54:15;;;;;;;2.60;0.50;;;15.60;99.90;15.40;101219.00;;;;5078429;28;20181;-71
2022/09/16 12:57:06;;;;;;;0.30;0.30;;;15.10;99.90;15.00;101207.00;;;;5074834;28;20213;-69
2022/09/16 13:00:17;;;;;;;0.30;0.30;;;15.00;99.90;15.10;101171.00;;;;5073383;28;20192;-69
2022/09/16 13:03:16;;;;;;;0.30;0.30;;;14.80;99.90;15.50;101205.00;;;;5074662;28;20252;-69
2022/09/16 13:05:52;;;;;;;0.30;0.30;;;14.80;99.90;15.00;101197.00;;;;5073587;28;20182;-69
2022/09/16 13:08:28;;;;;;;0.30;0.30;;;14.60;99.90;15.30;101209.00;;;;5073194;28;20176;-72
2022/09/16 13:11:39;;;;;;;0.30;0.30;;;14.60;99.90;15.40;101211.00;;;;5056222;28;20177;-70
2022/09/16 13:14:45;;;;;;;0.40;0.40;;;14.80;99.90;15.90;101227.00;;;;5089717;28;20197;-70
2022/09/16 13:17:36;;;;;;;0.30;0.30;;;15.00;99.90;16.20;101234.00;;;;5090118;28;20287;-72
2022/09/16 13:20:37;;;;;;;0.30;0.30;;;15.20;99.90;16.30;101239.00;;;;5072555;28;20180;-70
2022/09/16 13:23:58;;;;;;;0.40;0.40;;;15.30;99.90;16.70;101239.00;;;;5083976;28;20201;-71